createdAt,value
2018-12-08T00:00:59.000Z,25.8
2018-12-08T00:02:59.000Z,25.8
2018-12-08T00:03:59.000Z,25.8
2018-12-08T00:05:59.000Z,25.7
2018-12-08T00:06:59.000Z,25.7
2018-12-08T00:08:59.000Z,25.8
2018-12-08T00:10:59.000Z,25.8
2018-12-08T00:11:59.000Z,25.8
2018-12-08T00:13:59.000Z,25.8
2018-12-08T00:14:59.000Z,25.9
2018-12-08T00:16:59.000Z,25.9
2018-12-08T00:18:59.000Z,25.9
2018-12-08T00:20:59.000Z,25.9
2018-12-08T00:22:59.000Z,25.9
2018-12-08T00:24:59.000Z,25.8
2018-12-08T00:26:59.000Z,25.8
2018-12-08T00:28:59.000Z,25.8
2018-12-08T00:30:44.000Z,25.8
2018-12-08T00:31:59.000Z,25.7
2018-12-08T00:32:59.000Z,25.8
2018-12-08T00:34:44.000Z,25.8
2018-12-08T00:35:59.000Z,25.8
2018-12-08T00:37:44.000Z,25.8
2018-12-08T00:38:59.000Z,25.8
2018-12-08T00:40:59.000Z,25.8
2018-12-08T00:41:59.000Z,25.8
2018-12-08T00:43:59.000Z,25.9
2018-12-08T00:45:59.000Z,25.9
2018-12-08T00:46:59.000Z,25.9
2018-12-08T00:48:59.000Z,25.9
2018-12-08T00:50:59.000Z,25.8
2018-12-08T00:52:59.000Z,25.8
2018-12-08T00:53:59.000Z,25.8
2018-12-08T00:55:59.000Z,25.8
2018-12-08T00:56:59.000Z,25.9
2018-12-08T00:58:59.000Z,25.9
2018-12-08T00:59:59.000Z,26
2018-12-08T01:01:59.000Z,26
2018-12-08T01:03:59.000Z,25.8
2018-12-08T01:05:59.000Z,25.7
2018-12-08T01:07:44.000Z,25.7
2018-12-08T01:08:59.000Z,25.6
2018-12-08T01:09:59.000Z,25.7
2018-12-08T01:10:59.000Z,25.8
2018-12-08T01:12:59.000Z,25.9
2018-12-08T01:14:59.000Z,25.9
2018-12-08T01:15:59.000Z,25.9
2018-12-08T01:17:59.000Z,26
2018-12-08T01:19:59.000Z,26
2018-12-08T01:20:59.000Z,26
2018-12-08T01:22:59.000Z,25.9
2018-12-08T01:24:59.000Z,25.9
2018-12-08T01:26:59.000Z,25.8
2018-12-08T01:28:59.000Z,25.8
2018-12-08T01:30:59.000Z,25.8
2018-12-08T01:32:59.000Z,25.8
2018-12-08T01:33:59.000Z,25.8
2018-12-08T01:34:59.000Z,25.9
2018-12-08T01:36:59.000Z,25.8
2018-12-08T01:37:59.000Z,25.8
2018-12-08T01:39:59.000Z,25.9
2018-12-08T01:41:59.000Z,25.8
2018-12-08T01:42:59.000Z,25.8
2018-12-08T01:43:59.000Z,25.9
2018-12-08T01:45:59.000Z,25.9
2018-12-08T01:47:59.000Z,25.9
2018-12-08T01:49:59.000Z,25.8
2018-12-08T01:51:44.000Z,25.8
2018-12-08T01:52:59.000Z,25.8
2018-12-08T01:53:59.000Z,25.8
2018-12-08T01:55:59.000Z,25.9
2018-12-08T01:57:59.000Z,25.9
2018-12-08T01:59:59.000Z,25.9
2018-12-08T02:01:59.000Z,25.8
2018-12-08T02:03:59.000Z,25.8
2018-12-08T02:04:59.000Z,25.8
2018-12-08T02:06:59.000Z,25.9
2018-12-08T02:07:59.000Z,25.9
2018-12-08T02:09:59.000Z,26
2018-12-08T02:11:59.000Z,25.9
2018-12-08T02:13:59.000Z,25.9
2018-12-08T02:14:59.000Z,25.8
2018-12-08T02:16:59.000Z,25.9
2018-12-08T02:18:59.000Z,25.9
2018-12-08T02:19:59.000Z,25.9
2018-12-08T02:21:44.000Z,25.9
2018-12-08T02:22:44.000Z,25.9
2018-12-08T02:23:59.000Z,25.9
2018-12-08T02:24:59.000Z,25.9
2018-12-08T02:26:59.000Z,26
2018-12-08T02:28:59.000Z,26
2018-12-08T02:29:59.000Z,26
2018-12-08T02:30:59.000Z,26
2018-12-08T02:32:44.000Z,26
2018-12-08T02:33:59.000Z,26
2018-12-08T02:35:44.000Z,26
2018-12-08T02:36:44.000Z,25.9
2018-12-08T02:37:59.000Z,25.9
2018-12-08T02:39:44.000Z,25.9
2018-12-08T02:40:59.000Z,25.9
2018-12-08T02:42:59.000Z,25.8
2018-12-08T02:44:59.000Z,25.8
2018-12-08T02:45:59.000Z,25.8
2018-12-08T02:47:59.000Z,25.7
2018-12-08T02:48:59.000Z,25.7
2018-12-08T02:49:59.000Z,25.8
2018-12-08T02:50:59.000Z,25.8
2018-12-08T02:52:59.000Z,25.9
2018-12-08T02:54:59.000Z,25.9
2018-12-08T02:55:59.000Z,25.9
2018-12-08T02:57:59.000Z,26
2018-12-08T02:59:59.000Z,25.9
2018-12-08T03:01:59.000Z,25.9
2018-12-08T03:02:59.000Z,25.9
2018-12-08T03:04:59.000Z,25.9
2018-12-08T03:06:43.000Z,25.9
2018-12-08T03:07:59.000Z,25.8
2018-12-08T03:08:59.000Z,25.8
2018-12-08T03:09:59.000Z,25.9
2018-12-08T03:11:59.000Z,25.9
2018-12-08T03:13:43.000Z,25.9
2018-12-08T03:14:59.000Z,25.9
2018-12-08T03:16:43.000Z,25.9
2018-12-08T03:17:59.000Z,25.8
2018-12-08T03:19:59.000Z,25.9
2018-12-08T03:21:59.000Z,25.8
2018-12-08T03:23:59.000Z,25.8
2018-12-08T03:25:59.000Z,25.8
2018-12-08T03:27:59.000Z,25.8
2018-12-08T03:29:59.000Z,25.7
2018-12-08T03:31:59.000Z,25.6
2018-12-08T03:32:59.000Z,25.6
2018-12-08T03:34:59.000Z,25.6
2018-12-08T03:36:59.000Z,25.6
2018-12-08T03:37:59.000Z,25.6
2018-12-08T03:39:59.000Z,25.7
2018-12-08T03:41:59.000Z,25.7
2018-12-08T03:43:59.000Z,25.7
2018-12-08T03:44:59.000Z,25.7
2018-12-08T03:46:59.000Z,25.8
2018-12-08T03:47:59.000Z,25.8
2018-12-08T03:48:59.000Z,25.9
2018-12-08T03:50:59.000Z,25.9
2018-12-08T03:51:59.000Z,25.9
2018-12-08T03:53:59.000Z,25.9
2018-12-08T03:55:44.000Z,25.9
2018-12-08T03:56:59.000Z,25.8
2018-12-08T03:58:59.000Z,25.8
2018-12-08T03:59:59.000Z,25.8
2018-12-08T04:00:59.000Z,25.9
2018-12-08T04:02:44.000Z,25.9
2018-12-08T04:03:59.000Z,25.9
2018-12-08T04:04:59.000Z,25.9
2018-12-08T04:06:59.000Z,25.9
2018-12-08T04:07:59.000Z,25.9
2018-12-08T04:09:59.000Z,25.9
2018-12-08T04:11:44.000Z,25.9
2018-12-08T04:12:59.000Z,25.8
2018-12-08T04:14:59.000Z,25.8
2018-12-08T04:16:44.000Z,25.8
2018-12-08T04:17:59.000Z,25.8
2018-12-08T04:18:59.000Z,25.8
2018-12-08T04:20:59.000Z,25.8
2018-12-08T04:21:59.000Z,25.8
2018-12-08T04:22:59.000Z,25.8
2018-12-08T04:24:59.000Z,25.8
2018-12-08T04:26:59.000Z,25.8
2018-12-08T04:28:59.000Z,25.7
2018-12-08T04:30:59.000Z,25.7
2018-12-08T04:31:59.000Z,25.7
2018-12-08T04:32:59.000Z,25.8
2018-12-08T04:34:59.000Z,25.7
2018-12-08T04:35:59.000Z,25.7
2018-12-08T04:37:59.000Z,25.6
2018-12-08T04:39:59.000Z,25.6
2018-12-08T04:41:59.000Z,25.7
2018-12-08T04:43:59.000Z,25.7
2018-12-08T04:44:59.000Z,25.7
2018-12-08T04:45:59.000Z,25.8
2018-12-08T04:47:59.000Z,25.9
2018-12-08T04:49:44.000Z,25.9
2018-12-08T04:50:59.000Z,25.9
2018-12-08T04:52:59.000Z,25.8
2018-12-08T04:54:59.000Z,25.8
2018-12-08T04:56:59.000Z,25.8
2018-12-08T04:58:44.000Z,25.8
2018-12-08T04:59:59.000Z,25.8
2018-12-08T05:01:59.000Z,25.8
2018-12-08T05:02:59.000Z,25.8
2018-12-08T05:03:59.000Z,25.8
2018-12-08T05:05:59.000Z,25.8
2018-12-08T05:06:59.000Z,25.8
2018-12-08T05:08:59.000Z,25.8
2018-12-08T05:09:59.000Z,25.8
2018-12-08T05:11:59.000Z,25.9
2018-12-08T05:12:59.000Z,25.9
2018-12-08T05:13:59.000Z,26
2018-12-08T05:15:59.000Z,26
2018-12-08T05:17:59.000Z,26
2018-12-08T05:18:59.000Z,25.9
2018-12-08T05:19:59.000Z,25.9
2018-12-08T05:21:59.000Z,25.9
2018-12-08T05:23:59.000Z,25.7
2018-12-08T05:24:59.000Z,25.7
2018-12-08T05:26:59.000Z,25.8
2018-12-08T05:28:59.000Z,25.7
2018-12-08T05:30:59.000Z,25.7
2018-12-08T05:32:44.000Z,25.7
2018-12-08T05:33:59.000Z,25.6
2018-12-08T05:34:59.000Z,25.7
2018-12-08T05:36:59.000Z,25.7
2018-12-08T05:38:59.000Z,25.8
2018-12-08T05:39:59.000Z,25.8
2018-12-08T05:41:59.000Z,25.8
2018-12-08T05:42:59.000Z,25.8
2018-12-08T05:43:59.000Z,25.9
2018-12-08T05:45:59.000Z,26
2018-12-08T05:47:44.000Z,26
2018-12-08T05:48:59.000Z,25.9
2018-12-08T05:50:59.000Z,25.9
2018-12-08T05:51:59.000Z,25.8
2018-12-08T05:52:59.000Z,25.9
2018-12-08T05:53:59.000Z,26
2018-12-08T05:54:59.000Z,26
2018-12-08T05:55:59.000Z,26.1
2018-12-08T05:57:59.000Z,26
2018-12-08T05:59:59.000Z,26
2018-12-08T06:01:59.000Z,26
2018-12-08T06:02:59.000Z,26
2018-12-08T06:03:59.000Z,26
2018-12-08T06:05:59.000Z,26
2018-12-08T06:07:59.000Z,26
2018-12-08T06:09:59.000Z,25.9
2018-12-08T06:10:59.000Z,25.8
2018-12-08T06:11:59.000Z,25.9
2018-12-08T06:13:59.000Z,25.9
2018-12-08T06:15:59.000Z,25.8
2018-12-08T06:16:59.000Z,25.8
2018-12-08T06:18:59.000Z,25.8
2018-12-08T06:19:59.000Z,25.8
2018-12-08T06:21:59.000Z,25.9
2018-12-08T06:22:59.000Z,25.9
2018-12-08T06:24:59.000Z,26
2018-12-08T06:25:59.000Z,26
2018-12-08T06:26:59.000Z,26
2018-12-08T06:28:59.000Z,26
2018-12-08T06:30:59.000Z,26
2018-12-08T06:32:59.000Z,25.9
2018-12-08T06:33:59.000Z,25.9
2018-12-08T06:34:59.000Z,25.9
2018-12-08T06:35:59.000Z,26
2018-12-08T06:37:59.000Z,26
2018-12-08T06:39:59.000Z,26
2018-12-08T06:40:59.000Z,26
2018-12-08T06:42:59.000Z,26
2018-12-08T06:44:59.000Z,25.9
2018-12-08T06:45:59.000Z,25.9
2018-12-08T06:46:59.000Z,26
2018-12-08T06:48:59.000Z,25.9
2018-12-08T06:50:44.000Z,25.8
2018-12-08T06:51:59.000Z,25.8
2018-12-08T06:52:59.000Z,25.8
2018-12-08T06:54:59.000Z,25.7
2018-12-08T06:56:44.000Z,25.6
2018-12-08T06:57:59.000Z,25.6
2018-12-08T06:59:59.000Z,25.5
2018-12-08T07:00:59.000Z,25.5
2018-12-08T07:02:59.000Z,25.6
2018-12-08T07:04:59.000Z,25.5
2018-12-08T07:05:59.000Z,25.5
2018-12-08T07:07:59.000Z,25.5
2018-12-08T07:08:59.000Z,25.6
2018-12-08T07:10:59.000Z,25.6
2018-12-08T07:12:59.000Z,25.7
2018-12-08T07:13:59.000Z,25.7
2018-12-08T07:15:59.000Z,25.7
2018-12-08T07:17:59.000Z,25.7
2018-12-08T07:18:59.000Z,25.8
2018-12-08T07:20:59.000Z,25.8
2018-12-08T07:21:59.000Z,25.8
2018-12-08T07:23:59.000Z,25.8
2018-12-08T07:25:59.000Z,25.7
2018-12-08T07:26:59.000Z,25.7
2018-12-08T07:27:59.000Z,25.7
2018-12-08T07:28:59.000Z,25.8
2018-12-08T07:30:59.000Z,25.8
2018-12-08T07:31:59.000Z,25.8
2018-12-08T07:33:59.000Z,25.9
2018-12-08T07:34:59.000Z,25.9
2018-12-08T07:35:59.000Z,26
2018-12-08T07:36:59.000Z,26
2018-12-08T07:38:00.000Z,26.1
2018-12-08T07:39:59.000Z,26.1
2018-12-08T07:41:59.000Z,26
2018-12-08T07:43:59.000Z,25.9
2018-12-08T07:45:59.000Z,25.8
2018-12-08T07:47:00.000Z,25.8
2018-12-08T07:48:59.000Z,25.9
2018-12-08T07:50:59.000Z,25.8
2018-12-08T07:51:59.000Z,25.8
2018-12-08T07:53:59.000Z,25.8
2018-12-08T07:55:59.000Z,25.7
2018-12-08T07:56:59.000Z,25.7
2018-12-08T07:57:59.000Z,25.7
2018-12-08T08:00:00.000Z,25.8
2018-12-08T08:01:59.000Z,25.8
2018-12-08T08:02:59.000Z,25.8
2018-12-08T08:04:44.000Z,25.8
2018-12-08T08:05:59.000Z,25.8
2018-12-08T08:06:59.000Z,25.8
2018-12-08T08:08:59.000Z,25.8
2018-12-08T08:10:59.000Z,25.8
2018-12-08T08:11:59.000Z,25.8
2018-12-08T08:12:59.000Z,25.9
2018-12-08T08:14:59.000Z,25.9
2018-12-08T08:16:59.000Z,25.8
2018-12-08T08:18:59.000Z,25.8
2018-12-08T08:20:59.000Z,25.7
2018-12-08T08:22:59.000Z,25.7
2018-12-08T08:23:59.000Z,25.7
2018-12-08T08:25:59.000Z,25.8
2018-12-08T08:27:59.000Z,25.8
2018-12-08T08:29:59.000Z,25.8
2018-12-08T08:31:59.000Z,25.6
2018-12-08T08:33:59.000Z,25.6
2018-12-08T08:35:59.000Z,25.6
2018-12-08T08:37:59.000Z,25.6
2018-12-08T08:38:59.000Z,25.6
2018-12-08T08:39:59.000Z,25.7
2018-12-08T08:40:59.000Z,25.8
2018-12-08T08:42:59.000Z,25.8
2018-12-08T08:43:59.000Z,25.9
2018-12-08T08:44:59.000Z,25.9
2018-12-08T08:45:59.000Z,25.9
2018-12-08T08:47:59.000Z,25.9
2018-12-08T08:49:59.000Z,25.9
2018-12-08T08:51:59.000Z,25.9
2018-12-08T08:52:59.000Z,25.9
2018-12-08T08:53:59.000Z,25.9
2018-12-08T08:54:59.000Z,26
2018-12-08T08:55:59.000Z,26
2018-12-08T08:56:59.000Z,26.1
2018-12-08T08:58:59.000Z,26.1
2018-12-08T09:00:59.000Z,26.1
2018-12-08T09:02:59.000Z,26
2018-12-08T09:03:59.000Z,25.9
2018-12-08T09:05:59.000Z,25.9
2018-12-08T09:06:59.000Z,25.9
2018-12-08T09:08:59.000Z,25.9
2018-12-08T09:10:59.000Z,25.9
2018-12-08T09:11:59.000Z,25.9
2018-12-08T09:13:59.000Z,25.9
2018-12-08T09:14:59.000Z,25.9
2018-12-08T09:16:44.000Z,26
2018-12-08T09:17:59.000Z,26
2018-12-08T09:18:59.000Z,26
2018-12-08T09:19:59.000Z,26.1
2018-12-08T09:21:59.000Z,26.1
2018-12-08T09:23:59.000Z,26.1
2018-12-08T09:24:59.000Z,26.1
2018-12-08T09:26:59.000Z,26.2
2018-12-08T09:27:59.000Z,26.2
2018-12-08T09:28:59.000Z,26.2
2018-12-08T09:29:59.000Z,26.2
2018-12-08T09:31:59.000Z,26.2
2018-12-08T09:33:59.000Z,26.1
2018-12-08T09:34:59.000Z,26.1
2018-12-08T09:36:59.000Z,26.1
2018-12-08T09:38:59.000Z,26
2018-12-08T09:39:59.000Z,26
2018-12-08T09:41:44.000Z,26
2018-12-08T09:42:59.000Z,25.9
2018-12-08T09:44:59.000Z,25.9
2018-12-08T09:46:59.000Z,25.8
2018-12-08T09:48:44.000Z,25.8
2018-12-08T09:49:59.000Z,25.8
2018-12-08T09:51:59.000Z,25.7
2018-12-08T09:53:59.000Z,25.7
2018-12-08T09:55:59.000Z,25.7
2018-12-08T09:57:59.000Z,25.6
2018-12-08T09:59:59.000Z,25.6
2018-12-08T10:00:59.000Z,25.6
2018-12-08T10:01:59.000Z,25.7
2018-12-08T10:03:59.000Z,25.8
2018-12-08T10:05:59.000Z,25.8
2018-12-08T10:06:59.000Z,25.9
2018-12-08T10:07:59.000Z,25.9
2018-12-08T10:09:59.000Z,26
2018-12-08T10:11:59.000Z,25.9
2018-12-08T10:13:59.000Z,25.9
2018-12-08T10:15:59.000Z,25.9
2018-12-08T10:17:59.000Z,25.9
2018-12-08T10:19:59.000Z,25.8
2018-12-08T10:21:59.000Z,25.8
2018-12-08T10:23:59.000Z,25.8
2018-12-08T10:24:59.000Z,25.8
2018-12-08T10:25:59.000Z,25.8
2018-12-08T10:27:59.000Z,25.9
2018-12-08T10:28:59.000Z,25.9
2018-12-08T10:30:59.000Z,25.9
2018-12-08T10:31:59.000Z,26
2018-12-08T10:32:59.000Z,26
2018-12-08T10:34:59.000Z,26
2018-12-08T10:36:59.000Z,26
2018-12-08T10:38:44.000Z,25.9
2018-12-08T10:39:59.000Z,25.9
2018-12-08T10:41:59.000Z,25.8
2018-12-08T10:42:59.000Z,25.8
2018-12-08T10:44:59.000Z,25.8
2018-12-08T10:45:59.000Z,25.9
2018-12-08T10:47:59.000Z,25.9
2018-12-08T10:48:59.000Z,25.9
2018-12-08T10:50:59.000Z,25.8
2018-12-08T10:51:59.000Z,25.9
2018-12-08T10:53:59.000Z,26
2018-12-08T10:54:59.000Z,26
2018-12-08T10:56:59.000Z,26
2018-12-08T10:58:59.000Z,25.9
2018-12-08T11:00:59.000Z,25.9
2018-12-08T11:01:59.000Z,25.8
2018-12-08T11:02:59.000Z,25.9
2018-12-08T11:04:59.000Z,26
2018-12-08T11:06:59.000Z,26
2018-12-08T11:08:59.000Z,25.9
2018-12-08T11:10:59.000Z,25.9
2018-12-08T11:12:59.000Z,25.8
2018-12-08T11:13:59.000Z,25.8
2018-12-08T11:15:59.000Z,25.9
2018-12-08T11:16:59.000Z,26
2018-12-08T11:18:59.000Z,26.1
2018-12-08T11:20:44.000Z,26.1
2018-12-08T11:21:59.000Z,26.1
2018-12-08T11:23:59.000Z,26.1
2018-12-08T11:25:44.000Z,26.2
2018-12-08T11:26:59.000Z,26.1
2018-12-08T11:27:59.000Z,26.2
2018-12-08T11:29:59.000Z,26.2
2018-12-08T11:30:59.000Z,26.3
2018-12-08T11:32:59.000Z,26.3
2018-12-08T11:34:59.000Z,26.2
2018-12-08T11:36:44.000Z,26.3
2018-12-08T12:20:29.000Z,24.1
2018-12-08T12:22:28.000Z,24.4
2018-12-08T12:24:28.000Z,24.8
2018-12-08T12:25:28.000Z,25
2018-12-08T12:26:28.000Z,25.1
2018-12-08T12:28:13.000Z,25.5
2018-12-08T12:29:28.000Z,25.6
2018-12-08T12:31:28.000Z,25.8
2018-12-08T12:32:28.000Z,25.9
2018-12-08T12:34:28.000Z,26.1
2018-12-08T12:36:28.000Z,26.2
2018-12-08T12:37:28.000Z,26.2
2018-12-08T12:39:28.000Z,26.5
2018-12-08T12:41:28.000Z,26.8
2018-12-08T12:42:28.000Z,26.9
2018-12-08T12:43:28.000Z,27
2018-12-08T12:45:28.000Z,27.3
2018-12-08T12:46:28.000Z,27.5
2018-12-08T12:48:13.000Z,27.7
2018-12-08T12:49:28.000Z,27.6
2018-12-08T12:51:28.000Z,27.6
2018-12-08T12:53:13.000Z,27.6
2018-12-08T12:54:28.000Z,27.5
2018-12-08T12:55:28.000Z,27.5
2018-12-08T12:57:13.000Z,27.5
2018-12-08T12:58:28.000Z,27.4
2018-12-08T12:59:28.000Z,27.4
2018-12-08T13:01:28.000Z,27.3
2018-12-08T13:03:28.000Z,27.1
2018-12-08T13:04:28.000Z,27.1
2018-12-08T13:06:28.000Z,27
2018-12-08T13:07:28.000Z,27
2018-12-08T13:09:28.000Z,27
2018-12-08T13:11:28.000Z,27
2018-12-08T13:13:28.000Z,26.9
2018-12-08T13:14:28.000Z,26.9
2018-12-08T13:16:28.000Z,26.9
2018-12-08T13:18:13.000Z,26.9
2018-12-08T13:19:28.000Z,26.9
2018-12-08T13:20:28.000Z,26.9
2018-12-08T13:22:28.000Z,26.8
2018-12-08T13:23:28.000Z,26.8
2018-12-08T13:25:29.000Z,26.8
2018-12-08T13:27:29.000Z,26.8
2018-12-08T13:28:29.000Z,26.7
2018-12-08T13:30:29.000Z,26.7
2018-12-08T13:32:14.000Z,26.7
2018-12-08T13:33:29.000Z,26.6
2018-12-08T13:34:29.000Z,26.6
2018-12-08T13:36:29.000Z,26.6
2018-12-08T13:37:29.000Z,26.6
2018-12-08T13:39:29.000Z,26.6
2018-12-08T13:40:29.000Z,26.6
2018-12-08T13:41:29.000Z,26.7
2018-12-08T13:42:29.000Z,26.7
2018-12-08T13:43:29.000Z,26.7
2018-12-08T13:44:29.000Z,26.8
2018-12-08T13:46:29.000Z,26.8
2018-12-08T13:47:29.000Z,26.8
2018-12-08T13:49:29.000Z,26.7
2018-12-08T13:50:29.000Z,26.7
2018-12-08T13:51:29.000Z,26.7
2018-12-08T13:53:29.000Z,26.7
2018-12-08T13:55:29.000Z,26.5
2018-12-08T13:57:29.000Z,26.4
2018-12-08T13:58:29.000Z,26.4
2018-12-08T13:59:29.000Z,26.4
2018-12-08T14:01:29.000Z,26.5
2018-12-08T14:03:29.000Z,26.4
2018-12-08T14:05:29.000Z,26.4
2018-12-08T14:07:29.000Z,26.3
2018-12-08T14:08:29.000Z,26.3
2018-12-08T14:10:29.000Z,26.3
2018-12-08T14:12:29.000Z,26.2
2018-12-08T14:14:29.000Z,26.2
2018-12-08T14:15:29.000Z,26.3
2018-12-08T14:17:29.000Z,26.3
2018-12-08T14:19:29.000Z,26.3
2018-12-08T14:21:29.000Z,26.2
2018-12-08T14:23:29.000Z,26
2018-12-08T14:25:29.000Z,26
2018-12-08T14:27:29.000Z,25.9
2018-12-08T14:28:29.000Z,25.9
2018-12-08T14:29:28.000Z,26
2018-12-08T14:31:28.000Z,26.1
2018-12-08T14:32:28.000Z,26.2
2018-12-08T14:34:28.000Z,26.2
2018-12-08T14:35:28.000Z,26.2
2018-12-08T14:37:28.000Z,26.2
2018-12-08T14:38:28.000Z,26.2
2018-12-08T14:39:28.000Z,26.3
2018-12-08T14:41:28.000Z,26.3
2018-12-08T14:43:28.000Z,26.3
2018-12-08T14:44:28.000Z,26.3
2018-12-08T14:46:28.000Z,26.3
2018-12-08T14:47:28.000Z,26.3
2018-12-08T14:48:28.000Z,26.4
2018-12-08T14:49:28.000Z,26.4
2018-12-08T14:51:13.000Z,26.4
2018-12-08T14:52:13.000Z,26.4
2018-12-08T14:53:28.000Z,26.2
2018-12-08T14:54:28.000Z,26.2
2018-12-08T14:55:28.000Z,26.2
2018-12-08T14:57:28.000Z,26.3
2018-12-08T14:58:28.000Z,26.3
2018-12-08T15:00:13.000Z,26.4
2018-12-08T15:01:28.000Z,26.3
2018-12-08T15:03:28.000Z,26.2
2018-12-08T15:05:28.000Z,26.1
2018-12-08T15:06:28.000Z,26
2018-12-08T15:07:28.000Z,26.1
2018-12-08T15:09:28.000Z,26.2
2018-12-08T15:11:28.000Z,26.2
2018-12-08T15:13:28.000Z,26.1
2018-12-08T15:14:28.000Z,26.1
2018-12-08T15:16:28.000Z,26.1
2018-12-08T15:18:28.000Z,26.1
2018-12-08T15:19:28.000Z,26.1
2018-12-08T15:21:28.000Z,26.2
2018-12-08T15:22:28.000Z,26.2
2018-12-08T15:24:13.000Z,26.2
2018-12-08T15:25:28.000Z,26.2
2018-12-08T15:26:28.000Z,26.2
2018-12-08T15:28:28.000Z,26.3
2018-12-08T15:30:28.000Z,26.2
2018-12-08T15:32:28.000Z,26.2
2018-12-08T15:33:29.000Z,26.2
2018-12-08T15:34:29.000Z,26.2
2018-12-08T15:36:14.000Z,26.3
2018-12-08T15:37:29.000Z,26.2
2018-12-08T15:39:29.000Z,26.1
2018-12-08T15:40:29.000Z,26.1
2018-12-08T15:42:29.000Z,26.1
2018-12-08T15:44:29.000Z,26
2018-12-08T15:46:29.000Z,26
2018-12-08T15:47:29.000Z,26
2018-12-08T15:49:29.000Z,26.1
2018-12-08T15:50:29.000Z,26.1
2018-12-08T15:52:29.000Z,26.2
2018-12-08T15:53:29.000Z,26.2
2018-12-08T15:55:29.000Z,26.2
2018-12-08T15:57:29.000Z,26.2
2018-12-08T15:59:29.000Z,26.1
2018-12-08T16:00:29.000Z,26.1
2018-12-08T16:01:29.000Z,26.2
2018-12-08T16:03:29.000Z,26.2
2018-12-08T16:05:14.000Z,26.2
2018-12-08T16:06:29.000Z,26.1
2018-12-08T16:07:29.000Z,26.1
2018-12-08T16:09:29.000Z,26.2
2018-12-08T16:11:29.000Z,26.1
2018-12-08T16:12:29.000Z,26.1
2018-12-08T16:13:29.000Z,26.1
2018-12-08T16:15:29.000Z,26.1
2018-12-08T16:17:29.000Z,26.1
2018-12-08T16:18:29.000Z,26.1
2018-12-08T16:19:29.000Z,26.2
2018-12-08T16:21:14.000Z,26.3
2018-12-08T16:22:29.000Z,26.2
2018-12-08T16:23:29.000Z,26.2
2018-12-08T16:24:29.000Z,26.3
2018-12-08T16:26:29.000Z,26.3
2018-12-08T16:27:29.000Z,26.3
2018-12-08T16:28:29.000Z,26.3
2018-12-08T16:29:29.000Z,26.4
2018-12-08T16:30:29.000Z,26.4
2018-12-08T16:31:29.000Z,26.4
2018-12-08T16:33:29.000Z,26.4
2018-12-08T16:35:29.000Z,26.4
2018-12-08T16:37:29.000Z,26.3
2018-12-08T16:38:29.000Z,26.2
2018-12-08T16:39:29.000Z,26.2
2018-12-08T16:40:29.000Z,26.2
2018-12-08T16:42:29.000Z,26.3
2018-12-08T16:43:29.000Z,26.3
2018-12-08T16:45:29.000Z,26.3
2018-12-08T16:46:29.000Z,26.3
2018-12-08T16:48:29.000Z,26.3
2018-12-08T16:50:29.000Z,26.3
2018-12-08T16:51:29.000Z,26.2
2018-12-08T16:53:29.000Z,26.2
2018-12-08T16:55:29.000Z,26.1
2018-12-08T16:57:29.000Z,26
2018-12-08T16:58:29.000Z,26
2018-12-08T17:00:29.000Z,26
2018-12-08T17:02:29.000Z,26
2018-12-08T17:04:29.000Z,26
2018-12-08T17:05:29.000Z,26
2018-12-08T17:06:29.000Z,26
2018-12-08T17:08:29.000Z,26
2018-12-08T17:09:29.000Z,26
2018-12-08T17:10:29.000Z,26
2018-12-08T17:11:29.000Z,26
2018-12-08T17:13:29.000Z,26.1
2018-12-08T17:14:29.000Z,26.1
2018-12-08T17:15:29.000Z,26.1
2018-12-08T17:17:29.000Z,26.2
2018-12-08T17:19:29.000Z,26.1
2018-12-08T17:20:29.000Z,26.1
2018-12-08T17:22:29.000Z,26.1
2018-12-08T17:23:29.000Z,26.1
2018-12-08T17:25:29.000Z,26.2
2018-12-08T17:27:14.000Z,26.2
2018-12-08T17:28:29.000Z,26.1
2018-12-08T17:29:29.000Z,26.1
2018-12-08T17:31:29.000Z,26.2
2018-12-08T17:32:29.000Z,26.2
2018-12-08T17:33:29.000Z,26.2
2018-12-08T17:34:29.000Z,26.2
2018-12-08T17:35:29.000Z,26.2
2018-12-08T17:37:29.000Z,26.3
2018-12-08T17:39:29.000Z,26.3
2018-12-08T17:41:28.000Z,26.2
2018-12-08T17:42:28.000Z,26.2
2018-12-08T17:44:28.000Z,26.1
2018-12-08T17:46:28.000Z,26.1
2018-12-08T17:47:28.000Z,26.1
2018-12-08T17:49:28.000Z,26.1
2018-12-08T17:51:13.000Z,26.1
2018-12-08T17:52:28.000Z,26.1
2018-12-08T17:54:28.000Z,26
2018-12-08T17:56:13.000Z,26
2018-12-08T17:57:28.000Z,25.9
2018-12-08T17:59:13.000Z,25.9
2018-12-08T18:00:28.000Z,25.9
2018-12-08T18:02:28.000Z,25.9
2018-12-08T18:04:28.000Z,25.8
2018-12-08T18:06:28.000Z,25.7
2018-12-08T18:07:28.000Z,25.7
2018-12-08T18:09:28.000Z,25.7
2018-12-08T18:10:28.000Z,25.7
2018-12-08T18:12:28.000Z,25.8
2018-12-08T18:13:28.000Z,25.9
2018-12-08T18:14:28.000Z,25.9
2018-12-08T18:16:28.000Z,26
2018-12-08T18:18:28.000Z,26
2018-12-08T18:19:28.000Z,25.9
2018-12-08T18:20:28.000Z,26
2018-12-08T18:22:28.000Z,25.9
2018-12-08T18:24:28.000Z,25.7
2018-12-08T18:26:28.000Z,25.6
2018-12-08T18:27:28.000Z,25.6
2018-12-08T18:29:28.000Z,25.6
2018-12-08T18:30:28.000Z,25.7
2018-12-08T18:32:28.000Z,25.8
2018-12-08T18:34:28.000Z,25.8
2018-12-08T18:35:28.000Z,25.8
2018-12-08T18:37:28.000Z,25.9
2018-12-08T18:39:28.000Z,25.9
2018-12-08T18:40:28.000Z,25.9
2018-12-08T18:42:28.000Z,25.9
2018-12-08T18:44:29.000Z,25.9
2018-12-08T18:46:29.000Z,25.8
2018-12-08T18:48:29.000Z,25.7
2018-12-08T18:50:29.000Z,25.7
2018-12-08T18:52:29.000Z,25.6
2018-12-08T18:54:29.000Z,25.6
2018-12-08T18:56:29.000Z,25.6
2018-12-08T18:58:13.000Z,25.6
2018-12-08T18:59:29.000Z,25.6
2018-12-08T19:00:29.000Z,25.7
2018-12-08T19:01:29.000Z,25.7
2018-12-08T19:03:29.000Z,25.8
2018-12-08T19:04:29.000Z,25.8
2018-12-08T19:05:29.000Z,25.9
2018-12-08T19:07:29.000Z,26
2018-12-08T19:08:29.000Z,26
2018-12-08T19:10:29.000Z,26.1
2018-12-08T19:12:29.000Z,26
2018-12-08T19:13:29.000Z,26
2018-12-08T19:15:29.000Z,26
2018-12-08T19:17:29.000Z,26
2018-12-08T19:18:29.000Z,26
2018-12-08T19:20:29.000Z,25.9
2018-12-08T19:22:29.000Z,25.8
2018-12-08T19:24:29.000Z,25.7
2018-12-08T19:25:29.000Z,25.7
2018-12-08T19:26:29.000Z,25.8
2018-12-08T19:27:29.000Z,25.8
2018-12-08T19:28:29.000Z,25.9
2018-12-08T19:30:29.000Z,25.9
2018-12-08T19:31:29.000Z,25.9
2018-12-08T19:32:29.000Z,25.9
2018-12-08T19:34:29.000Z,25.9
2018-12-08T19:35:29.000Z,26
2018-12-08T19:37:29.000Z,26
2018-12-08T19:38:29.000Z,25.9
2018-12-08T19:40:29.000Z,26
2018-12-08T19:41:29.000Z,26
2018-12-08T19:43:29.000Z,26
2018-12-08T19:44:29.000Z,26
2018-12-08T19:46:29.000Z,26
2018-12-08T19:47:29.000Z,26
2018-12-08T19:48:28.000Z,26.1
2018-12-08T19:49:28.000Z,26.1
2018-12-08T19:51:28.000Z,26.2
2018-12-08T19:52:28.000Z,26.2
2018-12-08T19:54:13.000Z,26.2
2018-12-08T19:55:28.000Z,26.2
2018-12-08T19:56:28.000Z,26.2
2018-12-08T19:58:28.000Z,26.2
2018-12-08T19:59:28.000Z,26.2
2018-12-08T20:01:28.000Z,26.1
2018-12-08T20:02:28.000Z,26.1
2018-12-08T20:04:28.000Z,26.1
2018-12-08T20:06:28.000Z,26
2018-12-08T20:07:28.000Z,26
2018-12-08T20:08:28.000Z,26
2018-12-08T20:10:28.000Z,26
2018-12-08T20:12:28.000Z,26
2018-12-08T20:14:28.000Z,26
2018-12-08T20:15:28.000Z,26
2018-12-08T20:16:28.000Z,26
2018-12-08T20:17:28.000Z,26
2018-12-08T20:19:13.000Z,26.1
2018-12-08T20:20:28.000Z,26
2018-12-08T20:21:28.000Z,26.1
2018-12-08T20:22:28.000Z,26.1
2018-12-08T20:24:28.000Z,26.1
2018-12-08T20:25:28.000Z,26.1
2018-12-08T20:26:28.000Z,26.1
2018-12-08T20:28:28.000Z,26.2
2018-12-08T20:29:28.000Z,26.2
2018-12-08T20:31:28.000Z,26.1
2018-12-08T20:33:28.000Z,26
2018-12-08T20:35:28.000Z,25.9
2018-12-08T20:36:28.000Z,25.9
2018-12-08T20:38:28.000Z,25.9
2018-12-08T20:39:28.000Z,25.9
2018-12-08T20:41:28.000Z,25.9
2018-12-08T20:42:28.000Z,25.9
2018-12-08T20:43:28.000Z,26
2018-12-08T20:44:28.000Z,26.1
2018-12-08T20:46:28.000Z,26.1
2018-12-08T20:47:28.000Z,26.1
2018-12-08T20:49:28.000Z,26
2018-12-08T20:50:28.000Z,26
2018-12-08T20:51:28.000Z,26.1
2018-12-08T20:53:14.000Z,26.1
2018-12-08T20:54:29.000Z,26.1
2018-12-08T20:56:29.000Z,26
2018-12-08T20:58:29.000Z,26
2018-12-08T21:00:29.000Z,25.9
2018-12-08T21:01:29.000Z,25.9
2018-12-08T21:03:29.000Z,25.9
2018-12-08T21:05:29.000Z,25.9
2018-12-08T21:07:29.000Z,25.9
2018-12-08T21:08:29.000Z,25.9
2018-12-08T21:10:29.000Z,25.9
2018-12-08T21:12:29.000Z,25.9
2018-12-08T21:14:29.000Z,25.8
2018-12-08T21:15:29.000Z,25.8
2018-12-08T21:16:29.000Z,25.9
2018-12-08T21:18:29.000Z,25.8
2018-12-08T21:20:14.000Z,25.8
2018-12-08T21:21:29.000Z,25.7
2018-12-08T21:23:14.000Z,25.8
2018-12-08T21:24:29.000Z,25.8
2018-12-08T21:25:29.000Z,25.8
2018-12-08T21:27:29.000Z,25.9
2018-12-08T21:29:14.000Z,25.9
2018-12-08T21:30:29.000Z,25.9
2018-12-08T21:32:14.000Z,25.9
2018-12-08T21:33:29.000Z,25.9
2018-12-08T21:35:14.000Z,25.9
2018-12-08T21:36:29.000Z,25.9